createdAt,value
2022-08-16T00:02:24.204Z,20.1
2022-08-16T00:22:24.164Z,20.2
2022-08-16T00:42:29.413Z,20.0
2022-08-16T01:02:24.151Z,19.9
2022-08-16T01:22:24.125Z,19.5
2022-08-16T01:42:24.066Z,19.4
2022-08-16T02:02:24.039Z,19.2
2022-08-16T02:22:24.027Z,19.6
2022-08-16T02:42:24.003Z,19.0
2022-08-16T03:02:23.980Z,19.0
2022-08-16T03:22:23.935Z,19.0
2022-08-16T03:42:23.959Z,19.3
2022-08-16T04:02:23.908Z,19.0
2022-08-16T04:22:23.886Z,18.9
2022-08-16T04:42:23.861Z,18.9
2022-08-16T05:02:23.835Z,19.1
2022-08-16T05:22:23.795Z,19.2
2022-08-16T05:42:23.771Z,19.5
2022-08-16T06:02:23.802Z,19.6
2022-08-16T06:22:23.752Z,20.0
2022-08-16T06:42:23.700Z,20.3
2022-08-16T07:02:32.221Z,20.6
2022-08-16T07:22:23.673Z,20.9
2022-08-16T07:42:23.609Z,21.1
2022-08-16T08:02:23.614Z,21.4
2022-08-16T08:22:23.566Z,22.1
2022-08-16T08:42:23.578Z,22.7
2022-08-16T09:02:23.587Z,23.1
2022-08-16T09:22:23.473Z,23.8
2022-08-16T10:02:23.423Z,25.1
2022-08-16T10:22:23.437Z,25.8
2022-08-16T10:42:23.407Z,26.1
2022-08-16T11:02:23.380Z,26.3
2022-08-16T11:22:23.319Z,26.6
2022-08-16T11:42:23.308Z,27.6
2022-08-16T12:02:30.534Z,27.3
2022-08-16T12:22:23.308Z,28.2
2022-08-16T12:42:23.250Z,28.8
2022-08-16T13:02:23.174Z,29.2
2022-08-16T13:22:23.190Z,28.9
2022-08-16T13:42:23.185Z,29.8
2022-08-16T14:02:23.131Z,29.8
2022-08-16T14:22:23.080Z,29.1
2022-08-16T14:42:23.080Z,29.8
2022-08-16T15:02:23.116Z,29.4
2022-08-16T15:42:22.974Z,29.1
2022-08-16T16:02:22.981Z,29.0
2022-08-16T16:22:22.950Z,29.0
2022-08-16T16:42:22.913Z,28.9
2022-08-16T17:02:22.885Z,28.4
2022-08-16T17:22:22.928Z,28.3
2022-08-16T17:42:22.891Z,28.0
2022-08-16T18:02:22.869Z,27.7
2022-08-16T18:22:22.770Z,27.6
2022-08-16T18:42:22.811Z,27.0
2022-08-16T19:22:22.758Z,26.1
2022-08-16T19:42:22.707Z,25.5
2022-08-16T20:02:22.637Z,25.0
2022-08-16T20:22:22.617Z,24.7
2022-08-16T20:42:22.618Z,23.9
2022-08-16T21:02:22.628Z,23.4
2022-08-16T21:22:22.606Z,23.6
2022-08-16T21:42:22.576Z,23.4
2022-08-16T22:02:22.559Z,23.3
2022-08-16T22:22:22.485Z,22.3
2022-08-16T22:42:22.497Z,22.6
